Time,TemperatureF,DewpointF,PressureIn,WindDirection,WindDirectionDegrees,WindSpeedMPH,WindSpeedGustMPH,Humidity,HourlyPrecipIn,Conditions,Clouds,dailyrainin,SoftwareType,DateUTC
2013-03-04 00:00:00,52.0,47.4,29.68,WNW,293,0.0,0.0,84,0.00,,,0.00,WUHU216HW,2013-03-04 08:00:00,
2013-03-04 00:05:00,51.8,47.4,29.68,North,0,0.0,0.0,85,0.00,,,0.00,WUHU216HW,2013-03-04 08:05:00,
2013-03-04 00:10:00,51.5,47.3,29.68,NE,45,0.0,0.0,86,0.00,,,0.00,WUHU216HW,2013-03-04 08:10:00,
2013-03-04 00:15:00,51.5,47.3,29.68,ENE,68,0.2,0.9,86,0.00,,,0.00,WUHU216HW,2013-03-04 08:15:00,
2013-03-04 00:20:00,51.1,47.4,29.68,ENE,68,1.3,1.6,87,0.00,,,0.00,WUHU216HW,2013-03-04 08:20:00,
2013-03-04 00:25:00,51.1,47.6,29.67,NNE,23,1.1,1.6,88,0.00,,,0.00,WUHU216HW,2013-03-04 08:25:00,
2013-03-04 00:30:00,50.9,47.2,29.68,NE,45,1.1,1.8,87,0.00,,,0.00,WUHU216HW,2013-03-04 08:30:00,
2013-03-04 00:35:00,50.9,47.2,29.67,NE,45,1.1,1.8,87,0.00,,,0.00,WUHU216HW,2013-03-04 08:35:00,
2013-03-04 00:40:00,50.8,47.0,29.68,NE,45,0.4,1.6,87,0.00,,,0.00,WUHU216HW,2013-03-04 08:40:00,
2013-03-04 00:45:00,50.8,47.3,29.68,NE,45,1.8,1.8,88,0.00,,,0.00,WUHU216HW,2013-03-04 08:45:00,
2013-03-04 00:50:00,50.8,47.0,29.68,NE,45,0.7,2.0,87,0.00,,,0.00,WUHU216HW,2013-03-04 08:50:00,
2013-03-04 00:55:00,50.6,46.8,29.68,NE,45,0.7,2.0,87,0.00,,,0.00,WUHU216HW,2013-03-04 08:55:00,
2013-03-04 01:00:00,50.6,46.8,29.69,NNE,23,1.1,1.8,87,0.00,,,0.00,WUHU216HW,2013-03-04 09:00:00,
2013-03-04 01:05:00,50.4,46.3,29.70,NNE,23,0.4,1.8,86,0.00,,,0.00,WUHU216HW,2013-03-04 09:05:00,
2013-03-04 01:10:00,50.4,46.3,29.70,NNE,23,0.0,1.1,86,0.00,,,0.00,WUHU216HW,2013-03-04 09:10:00,
2013-03-04 01:15:00,50.2,46.5,29.69,ENE,68,1.6,2.0,87,0.00,,,0.00,WUHU216HW,2013-03-04 09:15:00,
2013-03-04 01:20:00,50.0,46.5,29.69,ENE,68,0.2,2.2,88,0.00,,,0.00,WUHU216HW,2013-03-04 09:20:00,
2013-03-04 01:25:00,50.0,46.5,29.69,ENE,68,1.3,2.2,88,0.00,,,0.00,WUHU216HW,2013-03-04 09:25:00,
2013-03-04 01:30:00,49.9,46.4,29.69,ENE,68,1.1,2.2,88,0.00,,,0.00,WUHU216HW,2013-03-04 09:30:00,
2013-03-04 01:35:00,49.9,46.4,29.69,ENE,68,0.4,2.2,88,0.00,,,0.00,WUHU216HW,2013-03-04 09:35:00,
2013-03-04 01:40:00,49.9,46.4,29.69,NE,45,0.9,2.0,88,0.00,,,0.00,WUHU216HW,2013-03-04 09:40:00,
2013-03-04 01:45:00,49.7,46.3,29.69,NNE,23,1.8,2.2,88,0.00,,,0.00,WUHU216HW,2013-03-04 09:45:00,
2013-03-04 01:50:00,49.7,46.3,29.69,NE,45,0.7,2.7,88,0.00,,,0.00,WUHU216HW,2013-03-04 09:50:00,
2013-03-04 01:55:00,49.7,46.5,29.69,NE,45,2.0,2.7,89,0.00,,,0.00,WUHU216HW,2013-03-04 09:55:00,
2013-03-04 02:00:00,49.7,46.5,29.70,NE,45,0.4,2.5,89,0.00,,,0.00,WUHU216HW,2013-03-04 10:00:00,
2013-03-04 02:05:00,49.7,46.5,29.69,ENE,68,0.9,2.5,89,0.00,,,0.00,WUHU216HW,2013-03-04 10:05:00,
2013-03-04 02:10:00,49.5,46.1,29.70,NNE,23,1.3,1.8,88,0.00,,,0.00,WUHU216HW,2013-03-04 10:10:00,
2013-03-04 02:15:00,49.5,46.4,29.69,ENE,68,0.9,1.8,89,0.00,,,0.00,WUHU216HW,2013-03-04 10:15:00,
2013-03-04 02:20:00,49.7,46.8,29.69,NE,45,1.1,2.9,90,0.00,,,0.00,WUHU216HW,2013-03-04 10:20:00,
2013-03-04 02:25:00,49.5,46.4,29.69,East,90,0.4,2.9,89,0.00,,,0.00,WUHU216HW,2013-03-04 10:25:00,
2013-03-04 02:30:00,49.5,46.4,29.68,East,90,1.3,1.8,89,0.00,,,0.00,WUHU216HW,2013-03-04 10:30:00,
2013-03-04 02:35:00,49.3,46.5,29.68,ENE,68,2.2,2.2,90,0.00,,,0.00,WUHU216HW,2013-03-04 10:35:00,
2013-03-04 02:40:00,49.3,46.5,29.68,East,90,1.1,2.2,90,0.00,,,0.00,WUHU216HW,2013-03-04 10:40:00,
2013-03-04 02:45:00,49.1,46.1,29.68,East,90,1.3,1.8,89,0.00,,,0.00,WUHU216HW,2013-03-04 10:45:00,
2013-03-04 02:50:00,49.1,46.1,29.68,ENE,68,0.4,1.8,89,0.00,,,0.00,WUHU216HW,2013-03-04 10:50:00,
2013-03-04 02:55:00,49.3,46.2,29.69,ENE,68,0.4,1.3,89,0.00,,,0.00,WUHU216HW,2013-03-04 10:55:00,
2013-03-04 03:00:00,49.1,46.1,29.68,East,90,1.1,1.8,89,0.00,,,0.00,WUHU216HW,2013-03-04 11:00:00,
2013-03-04 03:05:00,49.1,46.1,29.69,ENE,68,0.0,1.8,89,0.00,,,0.00,WUHU216HW,2013-03-04 11:05:00,
2013-03-04 03:10:00,49.1,45.7,29.69,ENE,68,0.7,0.9,88,0.00,,,0.00,WUHU216HW,2013-03-04 11:10:00,
2013-03-04 03:15:00,49.0,45.9,29.69,ENE,68,0.7,0.9,89,0.00,,,0.00,WUHU216HW,2013-03-04 11:15:00,
2013-03-04 03:20:00,49.0,45.5,29.69,NE,45,1.3,2.0,88,0.00,,,0.00,WUHU216HW,2013-03-04 11:20:00,
2013-03-04 03:25:00,49.0,46.2,29.69,East,90,0.4,2.0,90,0.00,,,0.00,WUHU216HW,2013-03-04 11:25:00,
2013-03-04 03:30:00,49.0,45.9,29.70,East,90,0.4,1.6,89,0.00,,,0.00,WUHU216HW,2013-03-04 11:30:00,
2013-03-04 03:35:00,49.0,45.9,29.69,NE,45,0.0,0.9,89,0.00,,,0.00,WUHU216HW,2013-03-04 11:35:00,
2013-03-04 03:40:00,49.0,45.5,29.69,North,0,1.1,1.1,88,0.00,,,0.00,WUHU216HW,2013-03-04 11:40:00,
2013-03-04 03:45:00,48.8,45.4,29.69,NNE,23,0.7,1.6,88,0.00,,,0.00,WUHU216HW,2013-03-04 11:45:00,
2013-03-04 03:50:00,48.6,45.5,29.69,ENE,68,0.7,1.6,89,0.00,,,0.00,WUHU216HW,2013-03-04 11:50:00,
2013-03-04 03:55:00,48.6,45.9,29.69,East,90,1.6,1.8,90,0.00,,,0.00,WUHU216HW,2013-03-04 11:55:00,
2013-03-04 04:00:00,48.8,46.3,29.70,East,90,2.5,2.7,91,0.00,,,0.00,WUHU216HW,2013-03-04 12:00:00,
2013-03-04 04:05:00,49.3,46.8,29.70,ESE,113,3.4,3.6,91,0.00,,,0.00,WUHU216HW,2013-03-04 12:05:00,
2013-03-04 04:10:00,49.5,47.0,29.70,NE,45,2.5,4.3,91,0.00,,,0.00,WUHU216HW,2013-03-04 12:10:00,
2013-03-04 04:15:00,49.7,46.8,29.70,ESE,113,2.5,4.3,90,0.00,,,0.00,WUHU216HW,2013-03-04 12:15:00,
2013-03-04 04:20:00,49.7,46.8,29.69,East,90,2.5,4.3,90,0.00,,,0.00,WUHU216HW,2013-03-04 12:20:00,
2013-03-04 04:25:00,49.9,47.0,29.69,East,90,2.2,4.0,90,0.00,,,0.00,WUHU216HW,2013-03-04 12:25:00,
2013-03-04 04:30:00,49.9,47.0,29.69,ENE,68,2.5,4.0,90,0.00,,,0.00,WUHU216HW,2013-03-04 12:30:00,
2013-03-04 04:35:00,49.9,47.0,29.69,ENE,68,1.8,3.4,90,0.00,,,0.00,WUHU216HW,2013-03-04 12:35:00,
2013-03-04 04:40:00,49.9,47.0,29.69,NE,45,2.0,3.1,90,0.00,,,0.00,WUHU216HW,2013-03-04 12:40:00,
2013-03-04 04:45:00,50.0,47.2,29.69,NE,45,1.8,3.1,90,0.00,,,0.00,WUHU216HW,2013-03-04 12:45:00,
2013-03-04 04:50:00,50.0,47.2,29.69,ENE,68,0.7,2.5,90,0.00,,,0.00,WUHU216HW,2013-03-04 12:50:00,
2013-03-04 04:55:00,50.0,47.2,29.69,East,90,1.8,2.5,90,0.00,,,0.00,WUHU216HW,2013-03-04 12:55:00,
2013-03-04 05:00:00,49.9,47.0,29.69,ESE,113,1.8,2.0,90,0.00,,,0.00,WUHU216HW,2013-03-04 13:00:00,
2013-03-04 05:05:00,49.9,47.0,29.70,ENE,68,1.3,2.0,90,0.00,,,0.00,WUHU216HW,2013-03-04 13:05:00,
2013-03-04 05:10:00,49.9,47.0,29.70,NE,45,2.2,2.2,90,0.00,,,0.00,WUHU216HW,2013-03-04 13:10:00,
2013-03-04 05:15:00,49.9,47.0,29.70,NE,45,0.7,2.2,90,0.00,,,0.00,WUHU216HW,2013-03-04 13:15:00,
2013-03-04 05:20:00,49.7,46.8,29.70,East,90,0.0,1.8,90,0.00,,,0.00,WUHU216HW,2013-03-04 13:20:00,
2013-03-04 05:25:00,49.5,46.7,29.71,East,90,0.0,1.3,90,0.00,,,0.00,WUHU216HW,2013-03-04 13:25:00,
2013-03-04 05:30:00,49.3,46.2,29.71,East,90,0.0,0.2,89,0.00,,,0.00,WUHU216HW,2013-03-04 13:30:00,
2013-03-04 05:35:00,49.3,46.5,29.71,East,90,0.4,0.7,90,0.00,,,0.00,WUHU216HW,2013-03-04 13:35:00,
2013-03-04 05:40:00,49.3,46.5,29.71,ENE,68,0.7,0.9,90,0.00,,,0.00,WUHU216HW,2013-03-04 13:40:00,
2013-03-04 05:45:00,49.3,46.8,29.71,ENE,68,1.1,1.6,91,0.00,,,0.00,WUHU216HW,2013-03-04 13:45:00,
2013-03-04 05:50:00,49.3,46.8,29.71,East,90,0.9,1.6,91,0.00,,,0.00,WUHU216HW,2013-03-04 13:50:00,
2013-03-04 05:55:00,49.3,46.8,29.71,ENE,68,1.6,1.6,91,0.00,,,0.00,WUHU216HW,2013-03-04 13:55:00,
2013-03-04 06:00:00,49.1,46.6,29.71,NE,45,0.0,1.6,91,0.00,,,0.00,WUHU216HW,2013-03-04 14:00:00,
2013-03-04 06:05:00,49.3,46.8,29.72,ENE,68,0.7,0.9,91,0.00,,,0.00,WUHU216HW,2013-03-04 14:05:00,
2013-03-04 06:10:00,49.3,46.8,29.71,NE,45,0.2,0.7,91,0.00,,,0.00,WUHU216HW,2013-03-04 14:10:00,
2013-03-04 06:15:00,49.5,47.0,29.71,ENE,68,1.1,1.8,91,0.00,,,0.00,WUHU216HW,2013-03-04 14:15:00,
2013-03-04 06:20:00,49.9,47.3,29.72,NE,45,1.1,2.5,91,0.00,,,0.00,WUHU216HW,2013-03-04 14:20:00,
2013-03-04 06:25:00,50.0,47.4,29.71,NE,45,0.0,2.5,91,0.00,,,0.00,WUHU216HW,2013-03-04 14:25:00,
2013-03-04 06:30:00,50.0,47.4,29.71,NE,45,0.7,1.1,91,0.00,,,0.00,WUHU216HW,2013-03-04 14:30:00,
2013-03-04 06:35:00,50.2,47.6,29.72,NE,45,0.9,1.3,91,0.00,,,0.00,WUHU216HW,2013-03-04 14:35:00,
2013-03-04 06:40:00,50.6,48.0,29.72,ENE,68,1.1,1.3,91,0.00,,,0.00,WUHU216HW,2013-03-04 14:40:00,
2013-03-04 06:45:00,50.8,47.9,29.73,NNE,23,1.3,1.3,90,0.00,,,0.00,WUHU216HW,2013-03-04 14:45:00,
2013-03-04 06:50:00,51.1,48.2,29.73,NE,45,0.4,1.3,90,0.00,,,0.00,WUHU216HW,2013-03-04 14:50:00,
2013-03-04 06:55:00,51.3,48.4,29.73,NE,45,0.4,1.3,90,0.00,,,0.00,WUHU216HW,2013-03-04 14:55:00,
2013-03-04 07:00:00,51.5,48.6,29.73,NE,45,0.0,1.1,90,0.00,,,0.00,WUHU216HW,2013-03-04 15:00:00,
2013-03-04 07:05:00,51.7,48.5,29.73,ESE,113,1.1,1.1,89,0.00,,,0.00,WUHU216HW,2013-03-04 15:05:00,
2013-03-04 07:10:00,52.0,49.1,29.74,ESE,113,1.8,2.2,90,0.00,,,0.00,WUHU216HW,2013-03-04 15:10:00,
2013-03-04 07:15:00,52.2,49.3,29.74,East,90,2.5,2.5,90,0.00,,,0.00,WUHU216HW,2013-03-04 15:15:00,
2013-03-04 07:20:00,52.6,49.4,29.74,ESE,113,3.4,3.4,89,0.00,,,0.00,WUHU216HW,2013-03-04 15:20:00,
2013-03-04 07:25:00,52.9,49.8,29.74,SE,135,2.0,3.4,89,0.00,,,0.00,WUHU216HW,2013-03-04 15:25:00,
2013-03-04 07:30:00,53.1,50.0,29.74,ESE,113,0.0,3.4,89,0.00,,,0.00,WUHU216HW,2013-03-04 15:30:00,
2013-03-04 07:35:00,53.3,50.1,29.74,SSE,158,1.8,3.4,89,0.00,,,0.00,WUHU216HW,2013-03-04 15:35:00,
2013-03-04 07:40:00,53.5,50.0,29.75,SSW,203,1.1,3.4,88,0.00,,,0.00,WUHU216HW,2013-03-04 15:40:00,
2013-03-04 07:45:00,53.6,50.1,29.75,SE,135,0.9,2.7,88,0.00,,,0.00,WUHU216HW,2013-03-04 15:45:00,
2013-03-04 07:50:00,53.8,50.3,29.75,ESE,113,2.5,3.4,88,0.00,,,0.00,WUHU216HW,2013-03-04 15:50:00,
2013-03-04 07:55:00,53.8,50.1,29.75,ESE,113,3.4,4.3,87,0.00,,,0.00,WUHU216HW,2013-03-04 15:55:00,
2013-03-04 08:00:00,54.0,50.2,29.75,ESE,113,4.9,4.9,87,0.00,,,0.00,WUHU216HW,2013-03-04 16:00:00,
2013-03-04 08:05:00,54.2,50.4,29.75,SE,135,1.8,4.9,87,0.00,,,0.00,WUHU216HW,2013-03-04 16:05:00,
2013-03-04 08:10:00,54.4,50.2,29.74,ESE,113,2.2,3.8,86,0.00,,,0.00,WUHU216HW,2013-03-04 16:10:00,
2013-03-04 08:15:00,54.4,50.2,29.74,East,90,4.7,4.7,86,0.00,,,0.00,WUHU216HW,2013-03-04 16:15:00,
2013-03-04 08:20:00,54.4,50.2,29.75,ENE,68,4.5,5.4,86,0.00,,,0.00,WUHU216HW,2013-03-04 16:20:00,
2013-03-04 08:25:00,54.4,50.2,29.74,SE,135,2.9,5.4,86,0.00,,,0.00,WUHU216HW,2013-03-04 16:25:00,
2013-03-04 08:30:00,54.5,50.1,29.75,ENE,68,2.7,4.5,85,0.00,,,0.00,WUHU216HW,2013-03-04 16:30:00,
2013-03-04 08:35:00,54.5,50.1,29.75,ESE,113,3.1,5.8,85,0.00,,,0.00,WUHU216HW,2013-03-04 16:35:00,
2013-03-04 08:40:00,54.7,50.2,29.75,WSW,248,1.3,5.8,85,0.00,,,0.00,WUHU216HW,2013-03-04 16:40:00,
2013-03-04 08:45:00,55.3,50.8,29.75,ESE,113,3.4,4.3,85,0.00,,,0.00,WUHU216HW,2013-03-04 16:45:00,
2013-03-04 08:50:00,55.8,50.9,29.75,ESE,113,3.4,4.7,84,0.00,,,0.00,WUHU216HW,2013-03-04 16:50:00,
2013-03-04 08:55:00,56.2,51.3,29.75,SSW,203,2.7,4.7,84,0.00,,,0.00,WUHU216HW,2013-03-04 16:55:00,
2013-03-04 09:00:00,56.5,51.4,29.76,SSE,158,3.4,4.0,83,0.00,,,0.00,WUHU216HW,2013-03-04 17:00:00,
2013-03-04 09:05:00,56.5,51.0,29.76,SSW,203,2.7,4.7,82,0.00,,,0.00,WUHU216HW,2013-03-04 17:05:00,
2013-03-04 09:10:00,56.5,51.4,29.76,ESE,113,4.3,4.9,83,0.00,,,0.00,WUHU216HW,2013-03-04 17:10:00,
2013-03-04 09:15:00,56.5,51.0,29.76,South,180,2.5,4.9,82,0.00,,,0.00,WUHU216HW,2013-03-04 17:15:00,
2013-03-04 09:20:00,56.9,51.4,29.76,SE,135,4.0,6.0,82,0.00,,,0.00,WUHU216HW,2013-03-04 17:20:00,
2013-03-04 09:25:00,57.4,51.9,29.76,WSW,248,3.8,6.0,82,0.00,,,0.00,WUHU216HW,2013-03-04 17:25:00,
2013-03-04 09:30:00,57.6,51.9,29.77,South,180,2.2,6.0,81,0.00,,,0.00,WUHU216HW,2013-03-04 17:30:00,
2013-03-04 09:35:00,57.4,50.9,29.76,East,90,3.8,6.3,79,0.00,,,0.00,WUHU216HW,2013-03-04 17:35:00,
2013-03-04 09:40:00,57.4,51.3,29.76,SE,135,2.5,6.3,80,0.00,,,0.00,WUHU216HW,2013-03-04 17:40:00,
2013-03-04 09:45:00,57.8,51.7,29.76,SE,135,3.4,4.3,80,0.00,,,0.00,WUHU216HW,2013-03-04 17:45:00,
2013-03-04 09:50:00,58.3,51.5,29.76,ENE,68,2.0,5.4,78,0.00,,,0.00,WUHU216HW,2013-03-04 17:50:00,
2013-03-04 09:55:00,58.5,51.7,29.76,SE,135,2.7,5.8,78,0.00,,,0.00,WUHU216HW,2013-03-04 17:55:00,
2013-03-04 10:00:00,58.5,51.7,29.76,SE,135,2.7,5.8,78,0.00,,,0.00,WUHU216HW,2013-03-04 18:00:00,
2013-03-04 10:05:00,59.0,52.6,29.76,ESE,113,0.7,4.9,79,0.00,,,0.00,WUHU216HW,2013-03-04 18:05:00,
2013-03-04 10:10:00,59.4,52.2,29.76,SW,225,0.2,3.8,77,0.00,,,0.00,WUHU216HW,2013-03-04 18:10:00,
2013-03-04 10:15:00,59.9,52.7,29.76,SSW,203,4.0,4.0,77,0.00,,,0.00,WUHU216HW,2013-03-04 18:15:00,
2013-03-04 10:20:00,60.5,51.8,29.76,West,270,1.3,5.4,73,0.00,,,0.00,WUHU216HW,2013-03-04 18:20:00,
2013-03-04 10:25:00,60.1,51.8,29.76,SSW,203,3.6,5.4,74,0.00,,,0.00,WUHU216HW,2013-03-04 18:25:00,
2013-03-04 10:29:00,59.9,51.7,29.76,North,0,0.4,3.6,74,0.00,,,0.00,WUHU216HW,2013-03-04 18:29:00,
2013-03-04 10:30:00,59.9,51.7,29.76,SE,135,1.1,3.6,74,0.00,,,0.00,WUHU216HW,2013-03-04 18:30:00,
2013-03-04 10:35:00,60.1,51.1,29.76,WSW,248,2.2,6.3,72,0.00,,,0.00,WUHU216HW,2013-03-04 18:35:00,
2013-03-04 10:40:00,60.3,51.3,29.76,SW,225,4.7,6.3,72,0.00,,,0.00,WUHU216HW,2013-03-04 18:40:00,
2013-03-04 10:45:00,59.9,49.8,29.76,ESE,113,1.8,4.7,69,0.00,,,0.00,WUHU216HW,2013-03-04 18:45:00,
2013-03-04 10:50:00,59.8,50.4,29.76,SW,225,6.5,6.5,71,0.00,,,0.00,WUHU216HW,2013-03-04 18:50:00,
2013-03-04 10:55:00,60.1,51.1,29.76,WSW,248,2.9,6.5,72,0.00,,,0.00,WUHU216HW,2013-03-04 18:55:00,
2013-03-04 11:00:00,60.5,50.8,29.76,NW,315,2.7,6.5,70,0.00,,,0.00,WUHU216HW,2013-03-04 19:00:00,
2013-03-04 11:05:00,60.7,50.5,29.76,WSW,248,2.5,3.4,69,0.00,,,0.00,WUHU216HW,2013-03-04 19:05:00,
2013-03-04 11:10:00,61.2,51.0,29.76,WSW,248,3.1,8.5,69,0.00,,,0.00,WUHU216HW,2013-03-04 19:10:00,
2013-03-04 11:15:00,60.7,50.1,29.76,NW,315,3.4,8.5,68,0.00,,,0.00,WUHU216HW,2013-03-04 19:15:00,
2013-03-04 11:20:00,59.8,49.2,29.76,West,270,2.5,4.5,68,0.00,,,0.00,WUHU216HW,2013-03-04 19:20:00,
2013-03-04 11:25:00,59.2,49.9,29.76,WSW,248,2.2,4.7,71,0.00,,,0.00,WUHU216HW,2013-03-04 19:25:00,
2013-03-04 11:30:00,58.9,50.2,29.77,SSW,203,1.8,5.6,73,0.00,,,0.00,WUHU216HW,2013-03-04 19:30:00,
2013-03-04 11:35:00,59.4,50.8,29.76,WSW,248,4.0,6.3,73,0.00,,,0.00,WUHU216HW,2013-03-04 19:35:00,
2013-03-04 11:40:00,59.4,50.8,29.77,WSW,248,2.5,6.3,73,0.00,,,0.00,WUHU216HW,2013-03-04 19:40:00,
2013-03-04 11:45:00,59.4,50.8,29.77,NNW,338,1.8,5.8,73,0.00,,,0.00,WUHU216HW,2013-03-04 19:45:00,
2013-03-04 11:50:00,59.8,51.1,29.76,West,270,3.1,5.8,73,0.00,,,0.00,WUHU216HW,2013-03-04 19:50:00,
2013-03-04 11:55:00,59.4,50.8,29.76,West,270,1.1,6.5,73,0.00,,,0.00,WUHU216HW,2013-03-04 19:55:00,
2013-03-04 12:00:00,59.8,50.8,29.76,West,270,2.5,8.3,72,0.00,,,0.00,WUHU216HW,2013-03-04 20:00:00,
2013-03-04 12:05:00,59.4,51.1,29.76,SW,225,4.0,8.3,74,0.00,,,0.00,WUHU216HW,2013-03-04 20:05:00,
2013-03-04 12:10:00,59.8,51.5,29.75,WSW,248,3.6,6.9,74,0.00,,,0.00,WUHU216HW,2013-03-04 20:10:00,
2013-03-04 12:15:00,59.8,51.1,29.75,SW,225,3.4,6.9,73,0.00,,,0.00,WUHU216HW,2013-03-04 20:15:00,
2013-03-04 12:20:00,59.9,51.3,29.75,NNW,338,2.9,4.5,73,0.00,,,0.00,WUHU216HW,2013-03-04 20:20:00,
2013-03-04 12:25:00,60.1,51.5,29.74,SSE,158,1.8,4.5,73,0.00,,,0.00,WUHU216HW,2013-03-04 20:25:00,
2013-03-04 12:30:00,59.8,51.1,29.74,WNW,293,1.8,4.0,73,0.00,,,0.00,WUHU216HW,2013-03-04 20:30:00,
2013-03-04 12:35:00,59.8,51.1,29.74,SSW,203,2.0,4.7,73,0.00,,,0.00,WUHU216HW,2013-03-04 20:35:00,
2013-03-04 12:40:00,60.1,51.5,29.74,West,270,2.9,4.7,73,0.00,,,0.00,WUHU216HW,2013-03-04 20:40:00,
2013-03-04 12:45:00,59.8,51.5,29.74,West,270,4.0,4.7,74,0.00,,,0.00,WUHU216HW,2013-03-04 20:45:00,
2013-03-04 12:50:00,59.8,51.1,29.74,WNW,293,1.8,6.0,73,0.00,,,0.00,WUHU216HW,2013-03-04 20:50:00,
2013-03-04 12:55:00,59.6,51.7,29.74,WSW,248,7.8,7.8,75,0.00,,,0.00,WUHU216HW,2013-03-04 20:55:00,
2013-03-04 13:00:00,59.4,50.8,29.73,West,270,4.3,7.8,73,0.00,,,0.00,WUHU216HW,2013-03-04 21:00:00,
2013-03-04 13:05:00,58.7,51.1,29.73,SW,225,2.7,7.8,76,0.00,,,0.00,WUHU216HW,2013-03-04 21:05:00,
2013-03-04 13:10:00,59.0,50.8,29.73,WSW,248,4.5,6.0,74,0.00,,,0.00,WUHU216HW,2013-03-04 21:10:00,
2013-03-04 13:15:00,59.2,51.7,29.73,SSW,203,2.5,6.9,76,0.00,,,0.00,WUHU216HW,2013-03-04 21:15:00,
2013-03-04 13:20:00,59.2,51.3,29.73,NW,315,3.4,6.9,75,0.00,,,0.00,WUHU216HW,2013-03-04 21:20:00,
2013-03-04 13:25:00,58.7,51.1,29.72,NW,315,1.8,5.6,76,0.00,,,0.00,WUHU216HW,2013-03-04 21:25:00,
2013-03-04 13:30:00,59.0,50.4,29.72,WSW,248,1.1,5.6,73,0.00,,,0.00,WUHU216HW,2013-03-04 21:30:00,
2013-03-04 13:35:00,59.8,51.1,29.72,West,270,2.0,5.4,73,0.00,,,0.00,WUHU216HW,2013-03-04 21:35:00,
2013-03-04 13:40:00,59.8,51.1,29.72,WNW,293,3.6,6.7,73,0.00,,,0.00,WUHU216HW,2013-03-04 21:40:00,
2013-03-04 13:45:00,60.3,51.7,29.72,WSW,248,2.5,6.7,73,0.00,,,0.00,WUHU216HW,2013-03-04 21:45:00,
2013-03-04 13:50:00,60.3,52.4,29.71,North,0,3.1,4.7,75,0.00,,,0.00,WUHU216HW,2013-03-04 21:50:00,
2013-03-04 13:55:00,58.9,51.7,29.72,WNW,293,3.1,4.7,77,0.00,,,0.00,WUHU216HW,2013-03-04 21:55:00,
2013-03-04 14:00:00,58.5,52.0,29.71,SSE,158,2.7,6.9,79,0.00,,,0.00,WUHU216HW,2013-03-04 22:00:00,
2013-03-04 14:05:00,58.3,51.8,29.71,WNW,293,1.8,6.9,79,0.00,,,0.00,WUHU216HW,2013-03-04 22:05:00,
2013-03-04 14:10:00,58.7,51.8,29.71,NW,315,1.8,4.5,78,0.00,,,0.00,WUHU216HW,2013-03-04 22:10:00,
2013-03-04 14:15:00,59.2,52.0,29.71,SW,225,6.3,6.3,77,0.00,,,0.00,WUHU216HW,2013-03-04 22:15:00,
2013-03-04 14:20:00,59.2,52.0,29.71,West,270,2.5,6.3,77,0.00,,,0.00,WUHU216HW,2013-03-04 22:20:00,
2013-03-04 14:25:00,59.6,52.0,29.70,WNW,293,2.0,6.3,76,0.00,,,0.00,WUHU216HW,2013-03-04 22:25:00,
2013-03-04 14:30:00,59.6,52.0,29.71,WNW,293,2.0,3.8,76,0.00,,,0.00,WUHU216HW,2013-03-04 22:30:00,
2013-03-04 14:35:00,59.4,51.8,29.70,NNW,338,2.5,3.8,76,0.00,,,0.00,WUHU216HW,2013-03-04 22:35:00,
2013-03-04 14:40:00,59.4,51.8,29.70,WSW,248,1.3,3.4,76,0.00,,,0.00,WUHU216HW,2013-03-04 22:40:00,
2013-03-04 14:45:00,59.6,52.0,29.70,SSW,203,1.6,3.6,76,0.00,,,0.00,WUHU216HW,2013-03-04 22:45:00,
2013-03-04 14:50:00,59.9,52.4,29.70,NNW,338,0.4,3.6,76,0.00,,,0.00,WUHU216HW,2013-03-04 22:50:00,
2013-03-04 14:55:00,60.7,52.4,29.70,SW,225,2.0,4.3,74,0.00,,,0.00,WUHU216HW,2013-03-04 22:55:00,
2013-03-04 15:00:00,61.2,52.6,29.70,NNW,338,0.4,4.3,73,0.00,,,0.00,WUHU216HW,2013-03-04 23:00:00,
2013-03-04 15:05:00,61.2,52.6,29.70,West,270,1.1,3.4,73,0.00,,,0.00,WUHU216HW,2013-03-04 23:05:00,
2013-03-04 15:10:00,61.4,52.3,29.70,West,270,1.6,6.5,72,0.00,,,0.00,WUHU216HW,2013-03-04 23:10:00,
2013-03-04 15:15:00,61.0,52.0,29.70,West,270,1.8,6.5,72,0.00,,,0.00,WUHU216HW,2013-03-04 23:15:00,
2013-03-04 15:20:00,60.8,52.2,29.70,West,270,1.6,3.1,73,0.00,,,0.00,WUHU216HW,2013-03-04 23:20:00,
2013-03-04 15:25:00,61.4,52.3,29.70,SW,225,5.4,5.4,72,0.00,,,0.00,WUHU216HW,2013-03-04 23:25:00,
2013-03-04 15:30:00,61.6,52.5,29.70,SSW,203,3.1,5.4,72,0.00,,,0.00,WUHU216HW,2013-03-04 23:30:00,
2013-03-04 15:35:00,61.6,52.1,29.69,SSW,203,3.8,5.4,71,0.00,,,0.00,WUHU216HW,2013-03-04 23:35:00,
2013-03-04 15:40:00,61.2,51.9,29.70,NNW,338,2.5,4.7,71,0.00,,,0.00,WUHU216HW,2013-03-04 23:40:00,
2013-03-04 15:45:00,61.0,51.7,29.69,WSW,248,0.4,3.8,71,0.00,,,0.00,WUHU216HW,2013-03-04 23:45:00,
2013-03-04 15:50:00,61.2,52.2,29.70,WSW,248,2.2,3.4,72,0.00,,,0.00,WUHU216HW,2013-03-04 23:50:00,
2013-03-04 15:55:00,61.0,51.7,29.70,SW,225,2.7,3.4,71,0.00,,,0.00,WUHU216HW,2013-03-04 23:55:00,
2013-03-04 16:00:00,61.2,52.2,29.70,SSW,203,5.1,5.1,72,0.00,,,0.00,WUHU216HW,2013-03-05 00:00:00,
2013-03-04 16:05:00,61.6,52.1,29.69,SW,225,2.2,5.4,71,0.00,,,0.00,WUHU216HW,2013-03-05 00:05:00,
2013-03-04 16:10:00,61.6,52.1,29.70,WSW,248,3.4,5.4,71,0.00,,,0.00,WUHU216HW,2013-03-05 00:10:00,
2013-03-04 16:15:00,61.4,51.6,29.70,SW,225,2.7,5.4,70,0.00,,,0.00,WUHU216HW,2013-03-05 00:15:00,
2013-03-04 16:20:00,61.4,51.9,29.70,West,270,3.6,5.4,71,0.00,,,0.00,WUHU216HW,2013-03-05 00:20:00,
2013-03-04 16:25:00,60.7,51.3,29.70,SSW,203,3.4,5.4,71,0.00,,,0.00,WUHU216HW,2013-03-05 00:25:00,
2013-03-04 16:30:00,60.5,51.8,29.70,NW,315,1.1,4.0,73,0.00,,,0.00,WUHU216HW,2013-03-05 00:30:00,
2013-03-04 16:35:00,59.8,51.1,29.70,WSW,248,4.5,5.1,73,0.00,,,0.00,WUHU216HW,2013-03-05 00:35:00,
2013-03-04 16:40:00,59.8,51.1,29.70,SW,225,2.5,8.1,73,0.00,,,0.00,WUHU216HW,2013-03-05 00:40:00,
2013-03-04 16:45:00,59.0,50.8,29.71,SW,225,3.6,8.1,74,0.00,,,0.00,WUHU216HW,2013-03-05 00:45:00,
2013-03-04 16:50:00,58.5,50.9,29.71,West,270,2.5,3.6,76,0.00,,,0.00,WUHU216HW,2013-03-05 00:50:00,
2013-03-04 16:55:00,57.8,51.3,29.72,WNW,293,2.2,5.8,79,0.00,,,0.00,WUHU216HW,2013-03-05 00:55:00,
2013-03-04 17:00:00,57.2,51.5,29.72,West,270,1.8,5.8,81,0.00,,,0.00,WUHU216HW,2013-03-05 01:00:00,
2013-03-04 17:05:00,56.5,51.0,29.73,West,270,2.9,5.1,82,0.00,,,0.00,WUHU216HW,2013-03-05 01:05:00,
2013-03-04 17:10:00,56.3,50.6,29.72,SW,225,4.3,4.9,81,0.00,,,0.00,WUHU216HW,2013-03-05 01:10:00,
2013-03-04 17:15:00,56.5,50.8,29.72,North,0,1.8,4.7,81,0.00,,,0.00,WUHU216HW,2013-03-05 01:15:00,
2013-03-04 17:20:00,56.9,51.1,29.72,NW,315,0.4,4.3,81,0.00,,,0.00,WUHU216HW,2013-03-05 01:20:00,
2013-03-04 17:25:00,56.7,50.6,29.72,WSW,248,2.0,4.0,80,0.00,,,0.00,WUHU216HW,2013-03-05 01:25:00,
2013-03-04 17:30:00,56.7,50.6,29.72,NNE,23,0.0,3.8,80,0.00,,,0.00,WUHU216HW,2013-03-05 01:30:00,
2013-03-04 17:35:00,56.5,50.4,29.72,SW,225,0.7,3.4,80,0.00,,,0.00,WUHU216HW,2013-03-05 01:35:00,
2013-03-04 17:40:00,56.3,50.2,29.72,West,270,1.3,3.4,80,0.00,,,0.00,WUHU216HW,2013-03-05 01:40:00,
2013-03-04 17:45:00,56.2,50.0,29.72,WSW,248,2.5,2.5,80,0.00,,,0.00,WUHU216HW,2013-03-05 01:45:00,
2013-03-04 17:50:00,56.0,49.9,29.72,SW,225,1.1,3.1,80,0.00,,,0.00,WUHU216HW,2013-03-05 01:50:00,
2013-03-04 17:55:00,55.8,49.7,29.72,NW,315,0.4,3.1,80,0.00,,,0.00,WUHU216HW,2013-03-05 01:55:00,
2013-03-04 18:00:00,55.8,50.1,29.72,SW,225,0.7,1.3,81,0.00,,,0.00,WUHU216HW,2013-03-05 02:00:00,
2013-03-04 18:05:00,55.8,50.1,29.73,WSW,248,1.1,3.4,81,0.00,,,0.00,WUHU216HW,2013-03-05 02:05:00,
2013-03-04 18:10:00,55.6,49.9,29.73,WSW,248,1.8,3.4,81,0.00,,,0.00,WUHU216HW,2013-03-05 02:10:00,
2013-03-04 18:15:00,55.4,49.7,29.73,WSW,248,2.0,3.8,81,0.00,,,0.00,WUHU216HW,2013-03-05 02:15:00,
2013-03-04 18:20:00,55.3,49.5,29.73,WSW,248,0.9,3.8,81,0.00,,,0.00,WUHU216HW,2013-03-05 02:20:00,
2013-03-04 18:25:00,55.3,49.5,29.73,WSW,248,0.2,2.7,81,0.00,,,0.00,WUHU216HW,2013-03-05 02:25:00,
2013-03-04 18:30:00,55.1,49.3,29.73,WSW,248,2.2,2.5,81,0.00,,,0.00,WUHU216HW,2013-03-05 02:30:00,
2013-03-04 18:35:00,55.1,49.7,29.74,West,270,0.4,2.5,82,0.00,,,0.00,WUHU216HW,2013-03-05 02:35:00,
2013-03-04 18:40:00,55.1,49.7,29.73,West,270,0.0,2.2,82,0.00,,,0.00,WUHU216HW,2013-03-05 02:40:00,
2013-03-04 18:45:00,54.9,49.5,29.74,WSW,248,0.2,2.0,82,0.00,,,0.00,WUHU216HW,2013-03-05 02:45:00,
2013-03-04 18:50:00,54.7,49.3,29.73,WSW,248,0.0,2.5,82,0.00,,,0.00,WUHU216HW,2013-03-05 02:50:00,
2013-03-04 18:55:00,54.7,49.6,29.73,WSW,248,0.7,2.5,83,0.00,,,0.00,WUHU216HW,2013-03-05 02:55:00,
2013-03-04 19:00:00,54.5,49.1,29.74,West,270,0.0,1.1,82,0.00,,,0.00,WUHU216HW,2013-03-05 03:00:00,
2013-03-04 19:05:00,54.4,49.0,29.74,West,270,0.0,1.1,82,0.00,,,0.00,WUHU216HW,2013-03-05 03:05:00,
2013-03-04 19:10:00,54.4,49.3,29.74,West,270,0.0,0.7,83,0.00,,,0.00,WUHU216HW,2013-03-05 03:10:00,
2013-03-04 19:15:00,54.2,48.8,29.74,SSW,203,0.7,0.9,82,0.00,,,0.00,WUHU216HW,2013-03-05 03:15:00,
2013-03-04 19:20:00,54.0,49.0,29.74,SE,135,0.4,0.9,83,0.00,,,0.00,WUHU216HW,2013-03-05 03:20:00,
2013-03-04 19:25:00,54.0,49.0,29.74,SE,135,1.1,1.3,83,0.00,,,0.00,WUHU216HW,2013-03-05 03:25:00,
2013-03-04 19:30:00,53.8,49.7,29.74,East,90,1.1,1.3,86,0.00,,,0.00,WUHU216HW,2013-03-05 03:30:00,
2013-03-04 19:35:00,53.6,49.2,29.74,ESE,113,1.1,1.8,85,0.00,,,0.00,WUHU216HW,2013-03-05 03:35:00,
2013-03-04 19:40:00,53.6,49.9,29.74,ENE,68,1.3,1.8,87,0.00,,,0.00,WUHU216HW,2013-03-05 03:40:00,
2013-03-04 19:45:00,53.5,50.0,29.74,NE,45,0.4,1.6,88,0.00,,,0.00,WUHU216HW,2013-03-05 03:45:00,
2013-03-04 19:50:00,53.5,49.7,29.74,NE,45,0.9,1.3,87,0.00,,,0.00,WUHU216HW,2013-03-05 03:50:00,
2013-03-04 19:55:00,53.3,49.1,29.74,ENE,68,1.1,1.6,86,0.00,,,0.00,WUHU216HW,2013-03-05 03:55:00,
2013-03-04 20:00:00,53.3,49.1,29.74,ENE,68,1.1,1.8,86,0.00,,,0.00,WUHU216HW,2013-03-05 04:00:00,
2013-03-04 20:05:00,52.9,48.8,29.75,ENE,68,1.8,3.6,86,0.00,,,0.00,WUHU216HW,2013-03-05 04:05:00,
2013-03-04 20:10:00,52.9,48.8,29.74,ESE,113,2.0,3.8,86,0.00,,,0.00,WUHU216HW,2013-03-05 04:10:00,
2013-03-04 20:15:00,52.7,49.0,29.74,ESE,113,2.5,3.8,87,0.00,,,0.00,WUHU216HW,2013-03-05 04:15:00,
2013-03-04 20:20:00,52.7,49.0,29.74,ESE,113,1.8,4.5,87,0.00,,,0.00,WUHU216HW,2013-03-05 04:20:00,
2013-03-04 20:25:00,52.6,49.1,29.74,ESE,113,3.1,4.5,88,0.00,,,0.00,WUHU216HW,2013-03-05 04:25:00,
2013-03-04 20:30:00,52.6,49.1,29.74,East,90,2.7,5.4,88,0.00,,,0.00,WUHU216HW,2013-03-05 04:30:00,
2013-03-04 20:35:00,52.4,48.9,29.74,East,90,4.5,5.4,88,0.00,,,0.00,WUHU216HW,2013-03-05 04:35:00,
2013-03-04 20:40:00,52.2,48.7,29.74,ESE,113,4.0,4.7,88,0.00,,,0.00,WUHU216HW,2013-03-05 04:40:00,
2013-03-04 20:45:00,52.2,48.7,29.74,NE,45,0.4,4.5,88,0.00,,,0.00,WUHU216HW,2013-03-05 04:45:00,
2013-03-04 20:50:00,52.2,48.7,29.74,East,90,1.1,4.0,88,0.00,,,0.00,WUHU216HW,2013-03-05 04:50:00,
2013-03-04 20:55:00,52.2,48.4,29.74,WNW,293,0.4,1.8,87,0.00,,,0.00,WUHU216HW,2013-03-05 04:55:00,
2013-03-04 21:00:00,52.2,48.4,29.75,West,270,0.4,1.1,87,0.00,,,0.00,WUHU216HW,2013-03-05 05:00:00,
2013-03-04 21:05:00,52.2,48.4,29.75,WSW,248,0.4,0.7,87,0.00,,,0.00,WUHU216HW,2013-03-05 05:05:00,
2013-03-04 21:10:00,52.4,48.6,29.76,WSW,248,0.0,0.7,87,0.00,,,0.00,WUHU216HW,2013-03-05 05:10:00,
2013-03-04 21:15:00,52.2,48.1,29.76,North,0,0.4,0.7,86,0.00,,,0.00,WUHU216HW,2013-03-05 05:15:00,
2013-03-04 21:20:00,52.2,48.1,29.76,North,0,0.0,0.7,86,0.00,,,0.00,WUHU216HW,2013-03-05 05:20:00,
2013-03-04 21:25:00,52.0,47.9,29.75,North,0,0.4,1.3,86,0.00,,,0.00,WUHU216HW,2013-03-05 05:25:00,
2013-03-04 21:30:00,51.7,47.5,29.75,ENE,68,1.1,2.0,86,0.00,,,0.00,WUHU216HW,2013-03-05 05:30:00,
2013-03-04 21:35:00,51.7,47.5,29.75,East,90,2.7,2.7,86,0.00,,,0.00,WUHU216HW,2013-03-05 05:35:00,
2013-03-04 21:40:00,51.5,47.3,29.75,ENE,68,1.3,2.7,86,0.00,,,0.00,WUHU216HW,2013-03-05 05:40:00,
2013-03-04 21:45:00,51.5,47.3,29.75,East,90,0.7,2.7,86,0.00,,,0.00,WUHU216HW,2013-03-05 05:45:00,
2013-03-04 21:50:00,51.5,47.3,29.76,WSW,248,0.4,1.6,86,0.00,,,0.00,WUHU216HW,2013-03-05 05:50:00,
2013-03-04 21:55:00,51.5,47.3,29.76,West,270,0.4,0.7,86,0.00,,,0.00,WUHU216HW,2013-03-05 05:55:00,
2013-03-04 22:00:00,51.5,47.1,29.76,West,270,0.4,0.7,85,0.00,,,0.00,WUHU216HW,2013-03-05 06:00:00,
2013-03-04 22:05:00,51.5,47.3,29.77,WSW,248,0.0,0.4,86,0.00,,,0.00,WUHU216HW,2013-03-05 06:05:00,
2013-03-04 22:10:00,51.5,47.3,29.77,NW,315,0.0,0.4,86,0.00,,,0.00,WUHU216HW,2013-03-05 06:10:00,
2013-03-04 22:15:00,51.5,47.3,29.77,East,90,1.6,1.6,86,0.00,,,0.00,WUHU216HW,2013-03-05 06:15:00,
2013-03-04 22:20:00,51.3,47.2,29.77,NE,45,1.1,1.8,86,0.00,,,0.00,WUHU216HW,2013-03-05 06:20:00,
2013-03-04 22:25:00,51.1,47.0,29.77,NNE,23,1.1,1.8,86,0.00,,,0.00,WUHU216HW,2013-03-05 06:25:00,
2013-03-04 22:30:00,50.9,46.8,29.77,NNE,23,2.2,2.2,86,0.00,,,0.00,WUHU216HW,2013-03-05 06:30:00,
2013-03-04 22:35:00,50.8,46.6,29.76,North,0,1.8,2.2,86,0.00,,,0.00,WUHU216HW,2013-03-05 06:35:00,
2013-03-04 22:40:00,50.8,46.6,29.76,NE,45,1.3,2.2,86,0.00,,,0.00,WUHU216HW,2013-03-05 06:40:00,
2013-03-04 22:45:00,50.8,47.0,29.76,NNE,23,1.1,2.0,87,0.00,,,0.00,WUHU216HW,2013-03-05 06:45:00,
2013-03-04 22:50:00,50.9,47.2,29.76,NNE,23,0.7,1.8,87,0.00,,,0.00,WUHU216HW,2013-03-05 06:50:00,
2013-03-04 22:55:00,50.9,47.2,29.76,NNE,23,0.0,1.6,87,0.00,,,0.00,WUHU216HW,2013-03-05 06:55:00,
2013-03-04 23:00:00,50.9,47.2,29.76,North,0,0.9,0.9,87,0.00,,,0.00,WUHU216HW,2013-03-05 07:00:00,
2013-03-04 23:05:00,50.9,47.2,29.76,NNW,338,0.4,1.6,87,0.00,,,0.00,WUHU216HW,2013-03-05 07:05:00,
2013-03-04 23:10:00,51.1,47.4,29.76,North,0,1.1,2.5,87,0.00,,,0.00,WUHU216HW,2013-03-05 07:10:00,
2013-03-04 23:15:00,51.1,47.4,29.76,North,0,0.0,2.5,87,0.00,,,0.00,WUHU216HW,2013-03-05 07:15:00,
2013-03-04 23:20:00,51.1,47.4,29.76,North,0,0.0,1.8,87,0.00,,,0.00,WUHU216HW,2013-03-05 07:20:00,
2013-03-04 23:25:00,50.9,47.2,29.76,North,0,0.0,0.2,87,0.00,,,0.00,WUHU216HW,2013-03-05 07:25:00,
2013-03-04 23:30:00,50.9,47.2,29.76,NW,315,0.9,1.6,87,0.00,,,0.00,WUHU216HW,2013-03-05 07:30:00,
2013-03-04 23:35:00,50.8,47.0,29.76,North,0,1.3,2.0,87,0.00,,,0.00,WUHU216HW,2013-03-05 07:35:00,
2013-03-04 23:40:00,50.8,47.0,29.76,North,0,0.0,2.0,87,0.00,,,0.00,WUHU216HW,2013-03-05 07:40:00,
2013-03-04 23:45:00,50.8,46.6,29.76,NNE,23,0.2,1.3,86,0.00,,,0.00,WUHU216HW,2013-03-05 07:45:00,
2013-03-04 23:50:00,50.6,46.4,29.76,NNE,23,1.3,1.3,86,0.00,,,0.00,WUHU216HW,2013-03-05 07:50:00,
2013-03-04 23:55:00,50.4,46.6,29.76,NE,45,0.7,1.3,87,0.00,,,0.00,WUHU216HW,2013-03-05 07:55:00,